עמוד ראשי
METAR-TAF:

METAR-TAF

שדות תעופה :

Al Jawf, ערב הסעודית

קו רוחב: 29-47N, קו אורך: 040-06E, גובה: 689מטר

תצפית מזג אוויר נוכחית

הדו"ח נערך לפני 1 שעות ו 6דקות, בשעה 20:00 UTC
רוח 4קשר מכיוון צפון-מערב
טמפרטורת 32 צלסיוס
לחות 9%
לחץ 1013 hPa
ראות 10 קילומטר או יותר
ללא עננים שבסיסם נמוך מ 5000 רגל או קומולונימבוס

METAR: OESK 132000Z 32004KT CAVOK 32/M05 Q1013 NOSIG

זמן: 00:06 (21:06 UTC)

תחזית

הדו"ח נערך לפני 10 שעות ו 6דקות, בשעה 11:00 UTC
תחזית בתוקף מ 13 ב 12 UTC עד 14 ב 18 UTC
רוח 12קשר מכיוון צפון/צפון-מערב
ראות 10 קילומטר או יותר
ללא עננים שבסיסם נמוך מ 5000 רגל או קומולונימבוס
יעשה מ
13 ב 18 UTC עד 13 ב 20 UTC
רוח 5קשר מכיוון צפון
יעשה מ
14 ב 06 UTC עד 14 ב 08 UTC
רוח 16קשר מכיוון צפון
ראות: 7000מטר

TAF: OESK 131100Z 1312/1418 34012KT CAVOK BECMG 1318/1320 36005KT BECMG 1406/1408 35016KT 7000 NSC

תצפיות ותחזיות מזג אוויר לגבי יותר מ- 4,000 שדות תעופה ברחבי העולם. דוחות METAR ו- TAF.

התחנות הזמינות מסומנות בנקודות צהובות ואדומות על גבי המפה.

העבר את העכבר לנקודה הצבעונית על מנת לראות את שם התחנה.

לאחר מכן, לחץ כדי לראות את תוכן ואת תחזיות מזג האוויר.

כדי לשנות את המפה: לחץ על הכפתורים הירוקים עם הפלוס השחור כדי להתקרב; על הכפתור הירוק עם המקף כדי להתרחק; או בחיצים הירוקים למפות סמוכות.


METAR-TAF: